createdAt,value
2017-04-09T00:00:54.824Z,17.55
2017-04-09T00:01:53.932Z,14.67
2017-04-09T00:02:53.050Z,17.18
2017-04-09T00:03:52.911Z,16.07
2017-04-09T00:04:52.044Z,18.32
2017-04-09T00:05:51.912Z,17.47
2017-04-09T00:06:51.019Z,18.67
2017-04-09T00:07:50.876Z,16.13
2017-04-09T00:08:49.992Z,15.88
2017-04-09T00:09:49.409Z,12.93
2017-04-09T00:10:49.285Z,12.08
2017-04-09T00:11:48.404Z,17.32
2017-04-09T00:12:48.257Z,13.00
2017-04-09T00:13:47.371Z,13.22
2017-04-09T00:14:46.572Z,14.38
2017-04-09T00:15:46.441Z,13.35
2017-04-09T00:16:45.557Z,15.08
2017-04-09T00:17:45.452Z,16.20
2017-04-09T00:18:44.572Z,13.60
2017-04-09T00:19:43.688Z,14.58
2017-04-09T00:20:42.813Z,13.12
2017-04-09T00:21:42.252Z,13.63
2017-04-09T00:22:41.368Z,13.93
2017-04-09T00:23:40.488Z,12.15
2017-04-09T00:24:40.356Z,13.40
2017-04-09T00:25:39.563Z,15.67
2017-04-09T00:26:38.684Z,14.65
2017-04-09T00:27:37.791Z,15.80
2017-04-09T00:28:36.948Z,13.38
2017-04-09T00:29:36.812Z,11.88
2017-04-09T00:30:35.940Z,15.07
2017-04-09T00:31:35.795Z,15.98
2017-04-09T00:32:34.916Z,18.32
2017-04-09T00:33:34.787Z,16.10
2017-04-09T00:34:34.120Z,15.33
2017-04-09T00:35:34.252Z,18.05
2017-04-09T00:36:33.432Z,15.73
2017-04-09T00:37:32.571Z,17.82
2017-04-09T00:38:31.811Z,17.97
2017-04-09T00:39:30.929Z,15.98
2017-04-09T00:40:30.056Z,16.65
2017-04-09T00:41:29.907Z,16.52
2017-04-09T00:42:29.020Z,17.27
2017-04-09T00:43:28.430Z,20.03
2017-04-09T00:44:28.280Z,12.77
2017-04-09T00:45:27.475Z,14.83
2017-04-09T00:46:26.603Z,12.08
2017-04-09T00:47:26.464Z,16.98
2017-04-09T00:48:25.642Z,15.57
2017-04-09T00:49:24.768Z,13.63
2017-04-09T00:50:23.884Z,13.63
2017-04-09T00:51:23.828Z,13.55
2017-04-09T00:52:22.928Z,16.05
2017-04-09T00:53:22.041Z,16.12
2017-04-09T00:54:21.877Z,14.95
2017-04-09T00:55:21.002Z,19.10
2017-04-09T00:56:20.144Z,16.28
2017-04-09T00:57:19.231Z,15.88
2017-04-09T00:58:18.325Z,15.18
2017-04-09T00:59:17.423Z,14.68
2017-04-09T01:00:16.605Z,16.70
2017-04-09T01:01:15.739Z,16.07
2017-04-09T01:02:14.919Z,13.92
2017-04-09T01:03:14.015Z,13.75
2017-04-09T01:04:13.420Z,17.12
2017-04-09T01:05:13.293Z,17.35
2017-04-09T01:06:12.387Z,16.27
2017-04-09T01:07:11.564Z,14.98
2017-04-09T01:08:10.754Z,13.50
2017-04-09T01:09:09.843Z,16.52
2017-04-09T01:10:08.936Z,13.98
2017-04-09T01:11:08.040Z,14.37
2017-04-09T01:12:07.904Z,14.42
2017-04-09T01:13:07.008Z,15.37
2017-04-09T01:14:06.469Z,13.90
2017-04-09T01:15:05.558Z,13.28
2017-04-09T01:16:04.656Z,16.73
2017-04-09T01:17:03.848Z,16.80
2017-04-09T01:18:02.960Z,15.07
2017-04-09T01:19:02.803Z,13.88
2017-04-09T01:20:01.912Z,14.32
2017-04-09T01:21:01.047Z,14.62
2017-04-09T01:22:01.187Z,14.12
2017-04-09T01:23:00.312Z,16.45
2017-04-09T01:23:59.396Z,13.60
2017-04-09T01:24:58.492Z,13.55
2017-04-09T01:25:57.584Z,13.05
2017-04-09T01:26:57.428Z,15.57
2017-04-09T01:27:56.541Z,13.87
2017-04-09T01:28:55.629Z,14.70
2017-04-09T01:29:54.719Z,12.47
2017-04-09T01:30:53.815Z,14.63
2017-04-09T01:31:53.224Z,16.13
2017-04-09T01:32:53.074Z,16.30
2017-04-09T01:33:52.183Z,17.32
2017-04-09T01:34:51.276Z,19.47
2017-04-09T01:35:50.367Z,18.88
2017-04-09T01:36:49.476Z,18.92
2017-04-09T01:37:49.339Z,18.92
2017-04-09T01:38:48.436Z,18.27
2017-04-09T01:39:47.536Z,15.28
2017-04-09T01:40:47.371Z,15.35
2017-04-09T01:41:46.564Z,15.15
2017-04-09T01:42:45.665Z,14.90
2017-04-09T01:43:44.768Z,15.23
2017-04-09T01:44:43.868Z,13.82
2017-04-09T01:45:42.956Z,13.47
2017-04-09T01:46:42.048Z,15.53
2017-04-09T01:47:41.500Z,15.58
2017-04-09T01:48:40.612Z,15.02
2017-04-09T01:49:39.720Z,16.75
2017-04-09T01:50:39.584Z,20.20
2017-04-09T01:51:38.696Z,18.45
2017-04-09T01:52:37.819Z,17.53
2017-04-09T01:53:36.928Z,15.03
2017-04-09T01:54:36.034Z,15.47
2017-04-09T01:55:35.152Z,12.82
2017-04-09T01:56:35.004Z,15.73
2017-04-09T01:57:34.152Z,17.63
2017-04-09T01:58:34.067Z,15.55
2017-04-09T01:59:33.207Z,14.02
2017-04-09T02:00:32.629Z,16.13
2017-04-09T02:01:32.512Z,18.05
2017-04-09T02:02:37.805Z,15.83
2017-04-09T02:03:36.930Z,18.12
2017-04-09T02:04:36.060Z,15.67
2017-04-09T02:05:35.178Z,15.22
2017-04-09T02:06:34.288Z,14.65
2017-04-09T02:07:33.392Z,15.53
2017-04-09T02:08:33.260Z,16.10
2017-04-09T02:09:32.364Z,15.80
2017-04-09T02:10:31.475Z,18.25
2017-04-09T02:11:31.334Z,18.33
2017-04-09T02:12:30.496Z,19.42
2017-04-09T02:13:29.636Z,21.63
2017-04-09T02:14:29.544Z,17.63
2017-04-09T02:15:29.412Z,21.63
2017-04-09T02:16:28.532Z,18.00
2017-04-09T02:17:28.397Z,19.67
2017-04-09T02:18:27.555Z,17.22
2017-04-09T02:19:26.727Z,14.02
2017-04-09T02:20:25.848Z,13.77
2017-04-09T02:21:24.957Z,15.35
2017-04-09T02:22:24.071Z,16.70
2017-04-09T02:23:23.960Z,20.08
2017-04-09T02:24:23.075Z,18.00
2017-04-09T02:25:22.184Z,15.30
2017-04-09T02:26:21.304Z,17.53
2017-04-09T02:27:20.408Z,14.40
2017-04-09T02:28:20.281Z,16.98
2017-04-09T02:29:19.400Z,17.52
2017-04-09T02:30:19.391Z,16.47
2017-04-09T02:31:18.500Z,15.32
2017-04-09T02:32:18.364Z,18.77
2017-04-09T02:33:17.480Z,18.07
2017-04-09T02:34:17.360Z,15.25
2017-04-09T02:35:16.465Z,15.28
2017-04-09T02:36:16.332Z,15.83
2017-04-09T02:37:15.515Z,14.87
2017-04-09T02:38:14.626Z,16.28
2017-04-09T02:39:13.756Z,16.08
2017-04-09T02:40:12.888Z,17.80
2017-04-09T02:41:12.001Z,16.38
2017-04-09T02:42:11.853Z,16.35
2017-04-09T02:43:10.964Z,16.42
2017-04-09T02:44:10.074Z,17.32
2017-04-09T02:45:09.952Z,17.35
2017-04-09T02:46:09.072Z,14.48
2017-04-09T02:47:08.925Z,16.10
2017-04-09T02:48:08.048Z,18.58
2017-04-09T02:49:07.156Z,16.98
2017-04-09T02:50:06.294Z,16.43
2017-04-09T02:51:05.408Z,16.97
2017-04-09T02:52:05.264Z,16.65
2017-04-09T02:53:04.418Z,14.42
2017-04-09T02:54:04.268Z,17.07
2017-04-09T02:55:03.398Z,17.68
2017-04-09T02:56:03.252Z,18.05
2017-04-09T02:57:02.360Z,16.15
2017-04-09T02:58:01.467Z,14.15
2017-04-09T02:59:01.324Z,16.98
2017-04-09T03:00:00.455Z,16.18
2017-04-09T03:01:00.391Z,16.70
2017-04-09T03:01:59.528Z,17.55
2017-04-09T03:02:58.644Z,18.90
2017-04-09T03:03:58.507Z,17.05
2017-04-09T03:04:57.638Z,15.60
2017-04-09T03:05:57.499Z,15.95
2017-04-09T03:06:56.820Z,13.52
2017-04-09T03:07:56.675Z,16.93
2017-04-09T03:08:55.829Z,15.58
2017-04-09T03:09:54.945Z,17.00
2017-04-09T03:10:54.068Z,15.62
2017-04-09T03:11:53.172Z,14.25
2017-04-09T03:12:53.028Z,17.00
2017-04-09T03:13:52.138Z,16.88
2017-04-09T03:14:51.256Z,18.73
2017-04-09T03:15:51.125Z,15.07
2017-04-09T03:16:50.232Z,19.67
2017-04-09T03:17:50.088Z,16.55
2017-04-09T03:18:49.200Z,15.12
2017-04-09T03:19:48.309Z,15.90
2017-04-09T03:20:48.187Z,18.13
2017-04-09T03:21:47.296Z,16.75
2017-04-09T03:22:47.153Z,15.45
2017-04-09T03:23:46.265Z,18.73
2017-04-09T03:24:45.396Z,17.38
2017-04-09T03:25:44.536Z,15.37
2017-04-09T03:26:43.652Z,19.65
2017-04-09T03:27:43.509Z,16.75
2017-04-09T03:28:42.628Z,16.10
2017-04-09T03:29:42.480Z,17.85
2017-04-09T03:30:41.687Z,15.62
2017-04-09T03:31:40.825Z,16.10
2017-04-09T03:32:39.941Z,15.00
2017-04-09T03:33:39.065Z,16.20
2017-04-09T03:34:38.176Z,18.12
2017-04-09T03:35:38.056Z,16.65
2017-04-09T03:36:37.161Z,16.20
2017-04-09T03:37:37.009Z,16.50
2017-04-09T03:38:36.149Z,16.15
2017-04-09T03:39:36.011Z,19.28
2017-04-09T03:40:35.156Z,20.20
2017-04-09T03:41:34.288Z,18.10
2017-04-09T03:42:33.409Z,20.93
2017-04-09T03:43:33.256Z,19.65
2017-04-09T03:44:32.372Z,16.32
2017-04-09T03:45:31.498Z,18.85
2017-04-09T03:46:30.632Z,17.87
2017-04-09T03:47:29.756Z,17.53
2017-04-09T03:48:29.633Z,18.18
2017-04-09T03:49:28.736Z,19.72
2017-04-09T03:50:28.592Z,20.88
2017-04-09T03:51:27.797Z,18.80
2017-04-09T03:52:26.915Z,20.02
2017-04-09T03:53:26.772Z,16.40
2017-04-09T03:54:25.884Z,17.58
2017-04-09T03:55:24.992Z,17.93
2017-04-09T03:56:24.863Z,18.75
2017-04-09T03:57:23.972Z,17.92
2017-04-09T03:58:23.828Z,15.73
2017-04-09T03:59:22.934Z,17.47
2017-04-09T04:00:22.048Z,17.90
2017-04-09T04:01:21.925Z,14.28
2017-04-09T04:02:21.063Z,17.57
2017-04-09T04:03:20.181Z,17.95
2017-04-09T04:04:19.289Z,20.22
2017-04-09T04:05:18.417Z,22.33
2017-04-09T04:06:17.548Z,22.67
2017-04-09T04:07:16.652Z,23.95
2017-04-09T04:08:15.760Z,22.98
2017-04-09T04:09:15.611Z,16.92
2017-04-09T04:10:14.713Z,18.87
2017-04-09T04:11:13.819Z,18.37
2017-04-09T04:12:12.948Z,16.75
2017-04-09T04:13:12.065Z,18.60
2017-04-09T04:14:11.172Z,19.32
2017-04-09T04:15:10.275Z,20.10
2017-04-09T04:16:10.128Z,22.88
2017-04-09T04:17:09.256Z,24.08
2017-04-09T04:18:09.112Z,24.37
2017-04-09T04:19:08.240Z,22.30
2017-04-09T04:20:07.356Z,21.85
2017-04-09T04:21:06.472Z,19.28
2017-04-09T04:22:05.596Z,18.48
2017-04-09T04:23:04.725Z,19.87
2017-04-09T04:24:03.924Z,18.68
2017-04-09T04:25:03.040Z,21.05
2017-04-09T04:26:02.164Z,19.42
2017-04-09T04:27:02.035Z,15.27
2017-04-09T04:28:01.188Z,16.85
2017-04-09T04:29:00.300Z,17.55
2017-04-09T04:29:59.416Z,17.48
2017-04-09T04:30:59.268Z,18.08
2017-04-09T04:31:58.428Z,17.98
2017-04-09T04:32:57.536Z,17.50
2017-04-09T04:33:56.644Z,18.47
2017-04-09T04:34:55.755Z,17.70
2017-04-09T04:35:55.621Z,19.00
2017-04-09T04:36:54.741Z,16.73
2017-04-09T04:37:54.154Z,19.38
2017-04-09T04:38:54.000Z,19.17
2017-04-09T04:39:53.120Z,21.50
2017-04-09T04:40:52.230Z,20.73
2017-04-09T04:41:52.096Z,22.33
2017-04-09T04:42:51.211Z,24.27
2017-04-09T04:43:51.069Z,19.63
2017-04-09T04:44:50.179Z,22.42
2017-04-09T04:45:49.296Z,20.03
2017-04-09T04:46:49.164Z,19.97
2017-04-09T04:47:48.287Z,21.33
2017-04-09T04:48:48.138Z,18.20
2017-04-09T04:49:47.265Z,16.65
2017-04-09T04:50:47.116Z,17.32
2017-04-09T04:51:46.244Z,19.97
2017-04-09T04:52:46.125Z,19.83
2017-04-09T04:53:45.239Z,26.43
2017-04-09T04:54:44.375Z,20.47
2017-04-09T04:55:43.492Z,21.18
2017-04-09T04:56:42.943Z,23.55
2017-04-09T04:57:42.072Z,22.02
2017-04-09T04:58:41.180Z,18.57
2017-04-09T04:59:41.040Z,17.15
2017-04-09T05:00:40.190Z,17.83
2017-04-09T05:01:39.319Z,17.58
2017-04-09T05:02:38.440Z,17.07
2017-04-09T05:03:38.291Z,16.75
2017-04-09T05:04:37.396Z,17.52
2017-04-09T05:05:36.584Z,20.23
2017-04-09T05:06:35.697Z,25.02
2017-04-09T05:07:35.672Z,19.35
2017-04-09T05:08:34.775Z,20.75
2017-04-09T05:09:33.903Z,23.78
2017-04-09T05:10:39.683Z,20.75
2017-04-09T05:11:38.813Z,15.65
2017-04-09T05:12:38.670Z,18.77
2017-04-09T05:13:37.794Z,20.72
2017-04-09T05:14:37.643Z,18.90
2017-04-09T05:15:36.760Z,19.45
2017-04-09T05:16:35.872Z,21.02
2017-04-09T05:17:35.737Z,22.27
2017-04-09T05:18:34.845Z,19.25
2017-04-09T05:19:33.951Z,17.17
2017-04-09T05:20:33.806Z,19.43
2017-04-09T05:21:32.913Z,18.28
2017-04-09T05:22:32.051Z,18.50
2017-04-09T05:23:31.412Z,20.00
2017-04-09T05:24:31.268Z,19.30
2017-04-09T05:25:31.144Z,17.02
2017-04-09T05:26:30.267Z,18.88
2017-04-09T05:27:29.427Z,18.10
2017-04-09T05:28:28.595Z,16.58
2017-04-09T05:29:27.707Z,18.23
2017-04-09T05:30:26.812Z,16.35
2017-04-09T05:31:25.924Z,13.42
2017-04-09T05:32:25.800Z,15.83
2017-04-09T05:33:24.911Z,17.22
2017-04-09T05:34:24.355Z,15.90
2017-04-09T05:35:23.463Z,17.98
2017-04-09T05:36:22.576Z,18.85
2017-04-09T05:37:21.984Z,14.58
2017-04-09T05:38:21.119Z,16.40
2017-04-09T05:39:20.535Z,13.93
2017-04-09T05:40:19.660Z,17.40
2017-04-09T05:41:18.767Z,17.83
2017-04-09T05:42:17.879Z,16.30
2017-04-09T05:43:17.020Z,16.23
2017-04-09T05:44:16.168Z,19.65
2017-04-09T05:45:15.276Z,17.43
2017-04-09T05:46:15.152Z,17.87
2017-04-09T05:47:14.259Z,14.48
2017-04-09T05:48:14.112Z,17.43
2017-04-09T05:49:13.214Z,15.82
2017-04-09T05:50:12.304Z,16.10
2017-04-09T05:51:11.399Z,15.18
2017-04-09T05:52:10.492Z,19.48
2017-04-09T05:53:09.592Z,18.05
2017-04-09T05:54:09.458Z,16.20
2017-04-09T05:55:08.568Z,19.87
2017-04-09T05:56:07.975Z,17.07
2017-04-09T05:57:07.816Z,17.97
2017-04-09T05:58:06.907Z,18.70
2017-04-09T05:59:06.024Z,20.70
2017-04-09T06:00:05.163Z,25.72
2017-04-09T06:01:04.260Z,20.62
2017-04-09T06:02:03.390Z,23.23
2017-04-09T06:03:02.488Z,23.72
2017-04-09T06:04:02.327Z,25.53
2017-04-09T06:05:01.444Z,21.80
2017-04-09T06:06:00.568Z,22.73
2017-04-09T06:07:00.407Z,23.80
2017-04-09T06:07:59.496Z,25.17
2017-04-09T06:08:58.598Z,23.63
2017-04-09T06:09:57.713Z,25.15
2017-04-09T06:10:57.591Z,20.72
2017-04-09T06:11:56.687Z,23.80
2017-04-09T06:12:55.785Z,18.73
2017-04-09T06:13:55.635Z,18.28
2017-04-09T06:14:54.757Z,22.25
2017-04-09T06:15:53.856Z,23.68
2017-04-09T06:16:52.967Z,20.65
2017-04-09T06:17:52.824Z,19.68
2017-04-09T06:18:51.936Z,24.20
2017-04-09T06:19:51.792Z,21.73
2017-04-09T06:20:50.906Z,23.42
2017-04-09T06:21:50.016Z,24.70
2017-04-09T06:22:49.876Z,23.22
2017-04-09T06:23:48.975Z,24.42
2017-04-09T06:24:48.092Z,24.08
2017-04-09T06:25:47.923Z,22.67
2017-04-09T06:26:47.024Z,23.50
2017-04-09T06:27:46.267Z,23.08
2017-04-09T06:28:46.109Z,26.68
2017-04-09T06:29:45.227Z,24.35
2017-04-09T06:30:44.336Z,25.27
2017-04-09T06:31:45.160Z,27.63
2017-04-09T06:32:44.576Z,26.38
2017-04-09T06:33:43.748Z,20.73
2017-04-09T06:34:42.863Z,14.72
2017-04-09T06:35:41.982Z,17.13
2017-04-09T06:36:41.084Z,20.78
2017-04-09T06:37:40.179Z,24.10
2017-04-09T06:38:39.265Z,19.23
2017-04-09T06:39:38.699Z,16.55
2017-04-09T06:40:37.821Z,21.12
2017-04-09T06:41:36.949Z,19.92
2017-04-09T06:42:36.801Z,16.55
2017-04-09T06:43:35.932Z,18.05
2017-04-09T06:44:35.776Z,16.42
2017-04-09T06:45:35.168Z,18.33
2017-04-09T06:46:34.268Z,19.23
2017-04-09T06:47:33.362Z,19.93
2017-04-09T06:48:32.496Z,18.72
2017-04-09T06:49:31.637Z,16.58
2017-04-09T06:50:30.751Z,16.65
2017-04-09T06:51:30.633Z,19.17
2017-04-09T06:52:29.755Z,17.80
2017-04-09T06:53:29.612Z,15.02
2017-04-09T06:54:28.719Z,20.60
2017-04-09T06:55:27.828Z,20.28
2017-04-09T06:56:27.700Z,18.55
2017-04-09T06:57:26.807Z,18.13
2017-04-09T06:58:26.663Z,16.72
2017-04-09T06:59:25.776Z,17.85
2017-04-09T07:00:24.883Z,18.42
2017-04-09T07:01:24.764Z,17.20
2017-04-09T07:02:25.724Z,16.47
2017-04-09T07:03:25.591Z,19.32
2017-04-09T07:04:24.712Z,19.05
2017-04-09T07:05:24.578Z,18.77
2017-04-09T07:06:23.723Z,19.18
2017-04-09T07:07:22.847Z,19.92
2017-04-09T07:08:21.996Z,17.33
2017-04-09T07:09:21.147Z,16.55
2017-04-09T07:10:21.080Z,18.03
2017-04-09T07:11:20.203Z,16.32
2017-04-09T07:12:19.364Z,16.42
2017-04-09T07:13:18.481Z,16.22
2017-04-09T07:14:17.640Z,17.88
2017-04-09T07:15:16.859Z,21.38
2017-04-09T07:16:15.964Z,18.98
2017-04-09T07:17:15.096Z,18.77
2017-04-09T07:18:14.213Z,15.20
2017-04-09T07:19:13.356Z,18.07
2017-04-09T07:20:12.471Z,22.03
2017-04-09T07:21:11.588Z,19.77
2017-04-09T07:22:10.728Z,15.00
2017-04-09T07:23:09.860Z,14.85
2017-04-09T07:24:08.984Z,19.52
2017-04-09T07:25:08.104Z,18.82
2017-04-09T07:26:07.241Z,16.53
2017-04-09T07:27:07.189Z,21.63
2017-04-09T07:28:06.332Z,23.02
2017-04-09T07:29:06.208Z,20.08
2017-04-09T07:30:05.344Z,26.17
2017-04-09T07:31:04.480Z,20.70
2017-04-09T07:32:03.644Z,18.00
2017-04-09T07:33:02.780Z,18.27
2017-04-09T07:34:02.644Z,22.47
2017-04-09T07:35:01.768Z,18.77
2017-04-09T07:36:01.664Z,17.57
2017-04-09T07:37:01.544Z,18.33
2017-04-09T07:38:00.696Z,18.47
2017-04-09T07:38:59.961Z,17.47
2017-04-09T07:39:59.865Z,21.48
2017-04-09T07:40:59.736Z,19.00
2017-04-09T07:41:58.892Z,16.02
2017-04-09T07:42:58.029Z,16.45
2017-04-09T07:43:57.916Z,19.20
2017-04-09T07:44:57.064Z,25.23
2017-04-09T07:45:56.217Z,17.63
2017-04-09T07:46:56.079Z,22.48
2017-04-09T07:47:55.237Z,17.78
2017-04-09T07:48:54.361Z,20.35
2017-04-09T07:49:53.500Z,18.13
2017-04-09T07:50:52.639Z,21.22
2017-04-09T07:51:51.781Z,22.62
2017-04-09T07:52:50.947Z,30.03
2017-04-09T07:53:50.090Z,18.10
2017-04-09T07:54:49.977Z,17.23
2017-04-09T07:55:49.104Z,21.95
2017-04-09T07:56:49.075Z,20.73
2017-04-09T07:57:48.262Z,26.62
2017-04-09T07:58:47.393Z,21.75
2017-04-09T07:59:47.261Z,17.50
2017-04-09T08:00:46.387Z,19.55
2017-04-09T08:01:46.245Z,19.17
2017-04-09T08:02:45.380Z,18.60
2017-04-09T08:03:44.521Z,16.88
2017-04-09T08:04:43.643Z,18.45
2017-04-09T08:05:43.532Z,19.73
2017-04-09T08:06:44.111Z,25.77
2017-04-09T08:07:43.253Z,25.95
2017-04-09T08:08:43.149Z,25.90
2017-04-09T08:09:43.157Z,18.28
2017-04-09T08:10:43.072Z,24.77
2017-04-09T08:11:42.972Z,28.75
2017-04-09T08:12:42.835Z,20.87
2017-04-09T08:13:42.080Z,17.65
2017-04-09T08:14:41.223Z,17.57
2017-04-09T08:15:40.367Z,18.40
2017-04-09T08:16:40.029Z,22.42
2017-04-09T08:17:39.899Z,24.35
2017-04-09T08:18:39.056Z,21.32
2017-04-09T08:19:38.188Z,27.83
2017-04-09T08:20:37.340Z,23.35
2017-04-09T08:21:36.468Z,25.70
2017-04-09T08:22:36.447Z,21.50
2017-04-09T08:23:35.580Z,30.18
2017-04-09T08:24:34.764Z,18.00
2017-04-09T08:25:33.875Z,19.63
2017-04-09T08:26:32.995Z,21.58
2017-04-09T08:27:32.120Z,26.47
2017-04-09T08:28:32.083Z,25.93
2017-04-09T08:29:31.270Z,19.85
2017-04-09T08:30:30.400Z,23.08
2017-04-09T08:31:30.272Z,21.75
2017-04-09T08:32:29.400Z,19.45
2017-04-09T08:33:28.540Z,23.13
2017-04-09T08:34:27.684Z,28.48
2017-04-09T08:35:26.812Z,22.00
2017-04-09T08:36:25.935Z,20.92
2017-04-09T08:37:25.808Z,18.95
2017-04-09T08:38:25.224Z,25.83
2017-04-09T08:39:25.105Z,27.50
2017-04-09T08:40:24.228Z,26.72
2017-04-09T08:41:23.353Z,26.40
2017-04-09T08:42:22.491Z,26.07
2017-04-09T08:43:22.388Z,25.20
2017-04-09T08:44:22.275Z,21.37
2017-04-09T08:45:21.391Z,24.28
2017-04-09T08:46:21.252Z,31.73
2017-04-09T08:47:20.387Z,22.72
2017-04-09T08:48:19.532Z,24.72
2017-04-09T08:49:18.972Z,25.92
2017-04-09T08:50:18.111Z,25.20
2017-04-09T08:51:17.240Z,25.45
2017-04-09T08:52:16.368Z,21.95
2017-04-09T08:53:15.505Z,25.27
2017-04-09T08:54:14.648Z,25.87
2017-04-09T08:55:13.789Z,26.52
2017-04-09T08:56:12.915Z,19.73
2017-04-09T08:57:12.039Z,21.63
2017-04-09T08:58:12.045Z,27.90
2017-04-09T08:59:12.028Z,19.25
2017-04-09T09:00:11.487Z,24.90
2017-04-09T09:01:10.643Z,25.93
2017-04-09T09:02:09.882Z,22.90
2017-04-09T09:03:09.006Z,23.38
2017-04-09T09:04:08.896Z,29.82
2017-04-09T09:05:08.317Z,30.73
2017-04-09T09:06:07.556Z,23.50
2017-04-09T09:07:06.704Z,28.17
2017-04-09T09:08:05.832Z,25.27
2017-04-09T09:09:05.609Z,19.97
2017-04-09T09:10:04.737Z,22.78
2017-04-09T09:11:04.149Z,24.45
2017-04-09T09:12:04.024Z,28.07
2017-04-09T09:13:03.155Z,26.85
2017-04-09T09:14:02.308Z,23.40
2017-04-09T09:15:02.181Z,23.10
2017-04-09T09:16:01.308Z,24.02
2017-04-09T09:17:01.215Z,21.97
2017-04-09T09:18:01.083Z,24.83
2017-04-09T09:19:00.220Z,24.60
2017-04-09T09:19:59.364Z,23.87
2017-04-09T09:20:58.489Z,24.00
2017-04-09T09:21:57.622Z,29.30
2017-04-09T09:22:56.748Z,23.02
2017-04-09T09:23:56.696Z,21.58
2017-04-09T09:24:55.821Z,24.08
2017-04-09T09:25:54.952Z,24.52
2017-04-09T09:26:54.088Z,20.77
2017-04-09T09:27:53.216Z,25.47
2017-04-09T09:28:52.344Z,28.88
2017-04-09T09:29:51.519Z,24.12
2017-04-09T09:30:50.972Z,26.98
2017-04-09T09:31:50.836Z,27.30
2017-04-09T09:32:49.956Z,34.45
2017-04-09T09:33:49.824Z,24.52
2017-04-09T09:34:48.976Z,21.15
2017-04-09T09:35:48.139Z,25.18
2017-04-09T09:36:48.004Z,25.67
2017-04-09T09:37:47.132Z,23.20
2017-04-09T09:38:46.262Z,22.77
2017-04-09T09:39:45.422Z,18.83
2017-04-09T09:40:44.553Z,24.42
2017-04-09T09:41:44.111Z,25.87
2017-04-09T09:42:43.227Z,22.70
2017-04-09T09:43:42.352Z,25.72
2017-04-09T09:44:42.223Z,21.75
2017-04-09T09:45:41.396Z,22.03
2017-04-09T09:46:40.535Z,23.02
2017-04-09T09:47:39.704Z,20.53
2017-04-09T09:48:39.959Z,21.35
2017-04-09T09:49:39.088Z,22.48
2017-04-09T09:50:38.235Z,25.53
2017-04-09T09:51:37.357Z,22.62
2017-04-09T09:52:36.480Z,27.28
2017-04-09T09:53:35.604Z,20.55
2017-04-09T09:54:34.732Z,18.25
2017-04-09T09:55:34.620Z,17.52
2017-04-09T09:56:33.748Z,15.47
2017-04-09T09:57:32.904Z,15.87
2017-04-09T09:58:32.797Z,17.68
2017-04-09T09:59:31.928Z,16.63
2017-04-09T10:00:31.088Z,17.62
2017-04-09T10:01:30.955Z,16.72
2017-04-09T10:02:30.077Z,16.42
2017-04-09T10:03:29.947Z,18.53
2017-04-09T10:04:29.100Z,16.27
2017-04-09T10:05:28.636Z,19.23
2017-04-09T10:06:27.780Z,19.93
2017-04-09T10:07:26.916Z,21.28
2017-04-09T10:08:26.028Z,18.19
2017-04-09T10:09:26.161Z,17.82
2017-04-09T10:10:25.288Z,13.77
2017-04-09T10:11:24.424Z,19.81
2017-04-09T10:12:23.580Z,17.51
2017-04-09T10:13:23.453Z,22.20
2017-04-09T10:14:22.576Z,20.40
2017-04-09T10:15:22.448Z,16.88
2017-04-09T10:16:21.584Z,18.85
2017-04-09T10:17:20.756Z,17.33
2017-04-09T10:18:20.624Z,12.95
2017-04-09T10:19:19.753Z,16.63
2017-04-09T10:20:19.628Z,15.02
2017-04-09T10:21:18.768Z,15.87
2017-04-09T10:22:17.892Z,17.45
2017-04-09T10:23:17.016Z,14.68
2017-04-09T10:24:16.880Z,17.18
2017-04-09T10:25:15.999Z,15.67
2017-04-09T10:26:15.880Z,16.60
2017-04-09T10:27:15.300Z,16.57
2017-04-09T10:28:15.179Z,19.55
2017-04-09T10:29:14.305Z,14.15
2017-04-09T10:30:13.437Z,16.42
2017-04-09T10:31:12.607Z,21.65
2017-04-09T10:32:11.732Z,15.75
2017-04-09T10:33:11.600Z,17.78
2017-04-09T10:34:10.732Z,13.48
2017-04-09T10:35:10.598Z,13.98
2017-04-09T10:36:09.760Z,15.77
2017-04-09T10:37:08.884Z,13.53
2017-04-09T10:38:08.014Z,14.47
2017-04-09T10:39:07.144Z,12.80
2017-04-09T10:40:06.272Z,18.07
2017-04-09T10:41:06.234Z,14.67
2017-04-09T10:42:05.396Z,20.78
2017-04-09T10:43:04.547Z,17.10
2017-04-09T10:44:04.413Z,14.43
2017-04-09T10:45:03.576Z,18.45
2017-04-09T10:46:02.716Z,21.18
2017-04-09T10:47:02.607Z,20.50
2017-04-09T10:48:01.752Z,18.90
2017-04-09T10:49:00.904Z,16.03
2017-04-09T10:50:00.783Z,13.25
2017-04-09T10:51:00.003Z,16.05
2017-04-09T10:51:59.248Z,25.38
2017-04-09T10:52:58.382Z,21.85
2017-04-09T10:53:57.723Z,19.23
2017-04-09T10:54:56.860Z,17.45
2017-04-09T10:55:55.980Z,13.60
2017-04-09T10:56:55.108Z,15.75
2017-04-09T10:57:55.028Z,16.42
2017-04-09T10:58:54.902Z,17.62
2017-04-09T10:59:54.036Z,16.05
2017-04-09T11:00:53.169Z,14.45
2017-04-09T11:01:52.295Z,16.63
2017-04-09T11:02:51.444Z,22.27
2017-04-09T11:03:50.580Z,19.33
2017-04-09T11:04:49.709Z,20.85
2017-04-09T11:05:48.843Z,16.25
2017-04-09T11:06:47.976Z,21.70
2017-04-09T11:07:47.116Z,22.85
2017-04-09T11:08:46.385Z,15.57
2017-04-09T11:09:46.265Z,16.72
2017-04-09T11:10:45.404Z,15.78
2017-04-09T11:11:44.980Z,15.33
2017-04-09T11:12:44.876Z,17.02
2017-04-09T11:13:44.744Z,24.77
2017-04-09T11:14:43.867Z,21.73
2017-04-09T11:15:43.740Z,16.17
2017-04-09T11:16:42.872Z,24.40
2017-04-09T11:17:42.014Z,17.45
2017-04-09T11:18:41.160Z,13.85
2017-04-09T11:19:40.292Z,22.20
2017-04-09T11:20:39.420Z,14.40
2017-04-09T11:21:38.559Z,12.12
2017-04-09T11:22:37.715Z,18.07
2017-04-09T11:23:36.837Z,16.52
2017-04-09T11:24:35.975Z,16.57
2017-04-09T11:25:35.115Z,14.40
2017-04-09T11:26:34.543Z,17.30
2017-04-09T11:27:33.688Z,18.87
2017-04-09T11:28:32.813Z,16.07
2017-04-09T11:29:31.946Z,13.70
2017-04-09T11:30:31.085Z,18.65
2017-04-09T11:31:30.227Z,18.58
2017-04-09T11:32:29.389Z,15.42
2017-04-09T11:33:28.511Z,17.98
2017-04-09T11:34:27.632Z,18.60
2017-04-09T11:35:26.763Z,21.80
2017-04-09T11:36:25.908Z,17.75
2017-04-09T11:37:25.064Z,24.03
2017-04-09T11:38:24.928Z,21.05
2017-04-09T11:39:24.091Z,23.35
2017-04-09T11:40:23.229Z,18.10
2017-04-09T11:41:22.351Z,19.68
2017-04-09T11:42:21.503Z,20.70
2017-04-09T11:43:20.645Z,15.97
2017-04-09T11:44:19.772Z,13.40
2017-04-09T11:45:18.895Z,13.12
2017-04-09T11:46:18.036Z,18.25
2017-04-09T11:47:17.162Z,17.50
2017-04-09T11:48:17.067Z,15.95
2017-04-09T11:49:17.027Z,17.67
2017-04-09T11:50:16.160Z,18.83
2017-04-09T11:51:16.032Z,17.03
2017-04-09T11:52:19.744Z,13.70
2017-04-09T11:53:18.952Z,19.28
2017-04-09T11:54:18.517Z,17.82
2017-04-09T11:55:18.387Z,18.50
2017-04-09T11:56:17.521Z,16.45
2017-04-09T11:57:17.388Z,16.83
2017-04-09T11:58:16.571Z,18.43
2017-04-09T11:59:15.697Z,18.85
2017-04-09T12:00:15.582Z,15.32
2017-04-09T12:01:14.716Z,16.20
2017-04-09T12:02:13.850Z,19.80
2017-04-09T12:03:12.981Z,15.68
2017-04-09T12:04:12.212Z,17.98
2017-04-09T12:05:11.340Z,16.85
2017-04-09T12:06:11.246Z,17.23
2017-04-09T12:07:10.403Z,17.08
2017-04-09T12:08:09.546Z,16.52
2017-04-09T12:09:08.696Z,15.40
2017-04-09T12:10:08.613Z,16.82
2017-04-09T12:11:07.761Z,16.70
2017-04-09T12:12:06.899Z,17.47
2017-04-09T12:13:06.032Z,21.58
2017-04-09T12:14:05.160Z,18.23
2017-04-09T12:15:04.312Z,17.95
2017-04-09T12:16:03.441Z,18.27
2017-04-09T12:17:02.630Z,14.28
2017-04-09T12:18:01.774Z,15.68
2017-04-09T12:19:00.908Z,15.73
2017-04-09T12:20:00.056Z,17.25
2017-04-09T12:20:59.932Z,18.70
2017-04-09T12:21:59.069Z,13.92
2017-04-09T12:22:58.203Z,13.55
2017-04-09T12:23:57.336Z,14.98
2017-04-09T12:24:57.228Z,15.60
2017-04-09T12:25:57.104Z,15.92
2017-04-09T12:26:56.328Z,18.52
2017-04-09T12:27:56.196Z,16.68
2017-04-09T12:28:55.416Z,16.08
2017-04-09T12:29:55.347Z,14.07
2017-04-09T12:30:54.494Z,18.50
2017-04-09T12:31:54.375Z,17.17
2017-04-09T12:32:53.500Z,15.35
2017-04-09T12:33:53.370Z,16.05
2017-04-09T12:34:52.500Z,13.60
2017-04-09T12:35:51.660Z,14.45
2017-04-09T12:36:51.092Z,16.93
2017-04-09T12:37:50.221Z,12.08
2017-04-09T12:38:49.552Z,14.87
2017-04-09T12:39:49.415Z,17.45
2017-04-09T12:40:48.568Z,17.65
2017-04-09T12:41:47.703Z,18.63
2017-04-09T12:42:46.832Z,17.13
2017-04-09T12:43:45.955Z,15.87
2017-04-09T12:44:45.087Z,15.00